sensor_id;sensor_type;location;lat;lon;timestamp;P1;durP1;ratioP1;P2;durP2;ratioP2
14778;SDS011;7481;53.750;10.570;2022-09-27T00:01:02;4.33;;;2.80;;
14778;SDS011;7481;53.750;10.570;2022-09-27T00:03:53;3.23;;;2.70;;
14778;SDS011;7481;53.750;10.570;2022-09-27T00:06:40;4.10;;;3.03;;
14778;SDS011;7481;53.750;10.570;2022-09-27T00:09:27;5.10;;;3.17;;
14778;SDS011;7481;53.750;10.570;2022-09-27T00:12:15;5.40;;;2.50;;
14778;SDS011;7481;53.750;10.570;2022-09-27T00:15:03;3.40;;;2.37;;
14778;SDS011;7481;53.750;10.570;2022-09-27T00:17:51;3.03;;;2.70;;
14778;SDS011;7481;53.750;10.570;2022-09-27T00:20:38;3.40;;;2.90;;
14778;SDS011;7481;53.750;10.570;2022-09-27T00:23:25;5.17;;;4.23;;
14778;SDS011;7481;53.750;10.570;2022-09-27T00:26:12;7.87;;;3.30;;
14778;SDS011;7481;53.750;10.570;2022-09-27T00:28:59;4.67;;;3.37;;
14778;SDS011;7481;53.750;10.570;2022-09-27T00:31:47;3.17;;;2.87;;
14778;SDS011;7481;53.750;10.570;2022-09-27T00:34:34;6.53;;;2.90;;
14778;SDS011;7481;53.750;10.570;2022-09-27T00:37:21;3.87;;;2.80;;
14778;SDS011;7481;53.750;10.570;2022-09-27T00:40:08;5.97;;;3.27;;
14778;SDS011;7481;53.750;10.570;2022-09-27T00:42:55;4.57;;;3.00;;
14778;SDS011;7481;53.750;10.570;2022-09-27T00:45:45;3.00;;;2.70;;
14778;SDS011;7481;53.750;10.570;2022-09-27T00:48:37;3.43;;;2.50;;
14778;SDS011;7481;53.750;10.570;2022-09-27T00:51:25;4.47;;;2.97;;
14778;SDS011;7481;53.750;10.570;2022-09-27T00:54:12;2.93;;;2.50;;
14778;SDS011;7481;53.750;10.570;2022-09-27T00:57:03;4.40;;;3.07;;
14778;SDS011;7481;53.750;10.570;2022-09-27T00:59:57;4.33;;;2.67;;
14778;SDS011;7481;53.750;10.570;2022-09-27T01:02:52;7.27;;;3.47;;
14778;SDS011;7481;53.750;10.570;2022-09-27T01:05:41;4.97;;;2.90;;
14778;SDS011;7481;53.750;10.570;2022-09-27T01:08:28;4.90;;;3.40;;
14778;SDS011;7481;53.750;10.570;2022-09-27T01:18:01;4.10;;;2.90;;
14778;SDS011;7481;53.750;10.570;2022-09-27T01:27:16;6.60;;;3.90;;
14778;SDS011;7481;53.750;10.570;2022-09-27T01:30:26;5.37;;;3.57;;
14778;SDS011;7481;53.750;10.570;2022-09-27T01:42:54;3.70;;;3.20;;
14778;SDS011;7481;53.750;10.570;2022-09-27T01:48:51;4.17;;;3.47;;
14778;SDS011;7481;53.750;10.570;2022-09-27T01:51:44;6.33;;;4.50;;
14778;SDS011;7481;53.750;10.570;2022-09-27T01:54:37;7.23;;;4.30;;
14778;SDS011;7481;53.750;10.570;2022-09-27T01:57:36;4.43;;;3.90;;
14778;SDS011;7481;53.750;10.570;2022-09-27T02:00:26;5.77;;;4.00;;
14778;SDS011;7481;53.750;10.570;2022-09-27T02:03:30;5.17;;;3.80;;
14778;SDS011;7481;53.750;10.570;2022-09-27T02:06:24;4.53;;;3.50;;
14778;SDS011;7481;53.750;10.570;2022-09-27T02:09:26;4.80;;;3.60;;
14778;SDS011;7481;53.750;10.570;2022-09-27T02:12:20;4.03;;;3.60;;
14778;SDS011;7481;53.750;10.570;2022-09-27T02:15:11;6.57;;;3.70;;
14778;SDS011;7481;53.750;10.570;2022-09-27T02:18:01;3.97;;;3.50;;
14778;SDS011;7481;53.750;10.570;2022-09-27T02:20:59;5.37;;;3.37;;
14778;SDS011;7481;53.750;10.570;2022-09-27T02:23:51;3.80;;;3.40;;
14778;SDS011;7481;53.750;10.570;2022-09-27T02:26:44;4.50;;;3.73;;
14778;SDS011;7481;53.750;10.570;2022-09-27T02:29:38;6.43;;;3.50;;
14778;SDS011;7481;53.750;10.570;2022-09-27T02:32:31;3.60;;;3.10;;
14778;SDS011;7481;53.750;10.570;2022-09-27T02:35:21;4.10;;;3.70;;
14778;SDS011;7481;53.750;10.570;2022-09-27T02:38:15;4.57;;;3.57;;
14778;SDS011;7481;53.750;10.570;2022-09-27T02:41:02;4.40;;;3.37;;
14778;SDS011;7481;53.750;10.570;2022-09-27T02:43:53;3.57;;;3.27;;
14778;SDS011;7481;53.750;10.570;2022-09-27T03:05:23;3.90;;;3.30;;
14778;SDS011;7481;53.750;10.570;2022-09-27T03:08:13;5.23;;;3.53;;
14778;SDS011;7481;53.750;10.570;2022-09-27T03:11:00;4.10;;;3.70;;
14778;SDS011;7481;53.750;10.570;2022-09-27T03:13:47;3.73;;;3.23;;
14778;SDS011;7481;53.750;10.570;2022-09-27T03:16:54;5.77;;;4.30;;
14778;SDS011;7481;53.750;10.570;2022-09-27T03:19:41;4.47;;;3.10;;
14778;SDS011;7481;53.750;10.570;2022-09-27T03:22:27;4.80;;;3.70;;
14778;SDS011;7481;53.750;10.570;2022-09-27T03:25:14;4.80;;;3.70;;
14778;SDS011;7481;53.750;10.570;2022-09-27T03:28:01;4.03;;;3.63;;
14778;SDS011;7481;53.750;10.570;2022-09-27T03:30:49;4.37;;;3.40;;
14778;SDS011;7481;53.750;10.570;2022-09-27T03:33:35;3.97;;;3.57;;
14778;SDS011;7481;53.750;10.570;2022-09-27T03:36:23;4.47;;;3.50;;
14778;SDS011;7481;53.750;10.570;2022-09-27T03:39:10;3.97;;;3.53;;
14778;SDS011;7481;53.750;10.570;2022-09-27T03:41:57;4.20;;;3.43;;
14778;SDS011;7481;53.750;10.570;2022-09-27T03:44:43;3.37;;;3.07;;
14778;SDS011;7481;53.750;10.570;2022-09-27T03:47:30;3.50;;;3.20;;
14778;SDS011;7481;53.750;10.570;2022-09-27T03:50:17;3.60;;;3.30;;
14778;SDS011;7481;53.750;10.570;2022-09-27T03:53:05;4.40;;;4.00;;
14778;SDS011;7481;53.750;10.570;2022-09-27T03:55:52;3.30;;;3.00;;
14778;SDS011;7481;53.750;10.570;2022-09-27T03:58:39;5.00;;;4.50;;
14778;SDS011;7481;53.750;10.570;2022-09-27T04:01:26;5.07;;;4.20;;
14778;SDS011;7481;53.750;10.570;2022-09-27T04:04:14;4.27;;;3.40;;
14778;SDS011;7481;53.750;10.570;2022-09-27T04:07:01;3.50;;;3.20;;
14778;SDS011;7481;53.750;10.570;2022-09-27T04:09:48;4.00;;;3.13;;
14778;SDS011;7481;53.750;10.570;2022-09-27T04:12:35;5.23;;;3.70;;
14778;SDS011;7481;53.750;10.570;2022-09-27T04:15:22;4.33;;;3.40;;
14778;SDS011;7481;53.750;10.570;2022-09-27T04:18:09;3.73;;;3.43;;
14778;SDS011;7481;53.750;10.570;2022-09-27T04:20:56;5.97;;;3.50;;
14778;SDS011;7481;53.750;10.570;2022-09-27T04:23:43;4.13;;;3.67;;
14778;SDS011;7481;53.750;10.570;2022-09-27T04:26:29;4.10;;;3.50;;
14778;SDS011;7481;53.750;10.570;2022-09-27T04:29:16;4.03;;;3.30;;
14778;SDS011;7481;53.750;10.570;2022-09-27T04:32:03;3.90;;;3.47;;
14778;SDS011;7481;53.750;10.570;2022-09-27T04:34:50;5.50;;;3.67;;
14778;SDS011;7481;53.750;10.570;2022-09-27T04:37:56;3.53;;;3.23;;
14778;SDS011;7481;53.750;10.570;2022-09-27T04:40:43;3.87;;;3.40;;
14778;SDS011;7481;53.750;10.570;2022-09-27T04:43:30;3.97;;;3.57;;
14778;SDS011;7481;53.750;10.570;2022-09-27T04:46:17;6.43;;;3.77;;
14778;SDS011;7481;53.750;10.570;2022-09-27T04:49:05;3.60;;;3.30;;
14778;SDS011;7481;53.750;10.570;2022-09-27T04:51:52;4.47;;;3.77;;
14778;SDS011;7481;53.750;10.570;2022-09-27T04:54:39;5.10;;;4.00;;
14778;SDS011;7481;53.750;10.570;2022-09-27T04:57:27;3.50;;;3.20;;
14778;SDS011;7481;53.750;10.570;2022-09-27T05:00:14;3.87;;;3.47;;
14778;SDS011;7481;53.750;10.570;2022-09-27T05:03:02;3.33;;;2.83;;
14778;SDS011;7481;53.750;10.570;2022-09-27T05:05:49;6.50;;;3.43;;
14778;SDS011;7481;53.750;10.570;2022-09-27T05:08:36;4.33;;;3.40;;
14778;SDS011;7481;53.750;10.570;2022-09-27T05:11:23;3.20;;;2.90;;
14778;SDS011;7481;53.750;10.570;2022-09-27T05:14:11;3.20;;;2.90;;
14778;SDS011;7481;53.750;10.570;2022-09-27T05:16:59;4.47;;;3.07;;
14778;SDS011;7481;53.750;10.570;2022-09-27T05:19:47;3.80;;;2.73;;
14778;SDS011;7481;53.750;10.570;2022-09-27T05:22:35;4.97;;;3.00;;
14778;SDS011;7481;53.750;10.570;2022-09-27T05:25:23;5.17;;;2.70;;
14778;SDS011;7481;53.750;10.570;2022-09-27T05:28:10;3.27;;;2.97;;
14778;SDS011;7481;53.750;10.570;2022-09-27T05:30:57;3.33;;;2.90;;
14778;SDS011;7481;53.750;10.570;2022-09-27T05:33:45;3.87;;;2.63;;
14778;SDS011;7481;53.750;10.570;2022-09-27T05:36:32;3.73;;;2.70;;
14778;SDS011;7481;53.750;10.570;2022-09-27T05:39:19;3.83;;;3.07;;
14778;SDS011;7481;53.750;10.570;2022-09-27T05:42:06;7.37;;;5.30;;
14778;SDS011;7481;53.750;10.570;2022-09-27T05:44:55;5.17;;;3.93;;
14778;SDS011;7481;53.750;10.570;2022-09-27T05:47:42;9.87;;;6.37;;
14778;SDS011;7481;53.750;10.570;2022-09-27T05:50:29;4.93;;;4.43;;
14778;SDS011;7481;53.750;10.570;2022-09-27T05:53:16;4.73;;;4.33;;
14778;SDS011;7481;53.750;10.570;2022-09-27T05:56:04;4.53;;;3.90;;
14778;SDS011;7481;53.750;10.570;2022-09-27T05:58:51;3.87;;;3.53;;
14778;SDS011;7481;53.750;10.570;2022-09-27T06:01:39;3.97;;;3.03;;
14778;SDS011;7481;53.750;10.570;2022-09-27T06:04:27;3.73;;;3.37;;
14778;SDS011;7481;53.750;10.570;2022-09-27T06:07:13;3.60;;;3.30;;
14778;SDS011;7481;53.750;10.570;2022-09-27T06:10:01;3.70;;;3.20;;
14778;SDS011;7481;53.750;10.570;2022-09-27T06:12:48;3.70;;;3.20;;
14778;SDS011;7481;53.750;10.570;2022-09-27T06:15:36;4.13;;;3.40;;
14778;SDS011;7481;53.750;10.570;2022-09-27T06:18:24;4.23;;;3.83;;
14778;SDS011;7481;53.750;10.570;2022-09-27T06:21:11;3.87;;;3.47;;
14778;SDS011;7481;53.750;10.570;2022-09-27T06:23:59;3.90;;;3.60;;
14778;SDS011;7481;53.750;10.570;2022-09-27T06:26:47;3.90;;;3.60;;
14778;SDS011;7481;53.750;10.570;2022-09-27T06:29:34;4.13;;;3.73;;
14778;SDS011;7481;53.750;10.570;2022-09-27T06:32:23;3.90;;;3.60;;
14778;SDS011;7481;53.750;10.570;2022-09-27T06:35:09;4.03;;;3.63;;
14778;SDS011;7481;53.750;10.570;2022-09-27T06:37:57;4.63;;;4.23;;
14778;SDS011;7481;53.750;10.570;2022-09-27T06:40:44;4.77;;;3.53;;
14778;SDS011;7481;53.750;10.570;2022-09-27T06:43:31;4.27;;;3.87;;
14778;SDS011;7481;53.750;10.570;2022-09-27T06:46:19;4.27;;;3.87;;
14778;SDS011;7481;53.750;10.570;2022-09-27T06:49:07;4.53;;;4.13;;
14778;SDS011;7481;53.750;10.570;2022-09-27T06:51:55;3.80;;;3.40;;
14778;SDS011;7481;53.750;10.570;2022-09-27T06:54:42;4.80;;;4.20;;
14778;SDS011;7481;53.750;10.570;2022-09-27T06:57:30;4.77;;;4.13;;
14778;SDS011;7481;53.750;10.570;2022-09-27T07:00:36;4.70;;;4.20;;
14778;SDS011;7481;53.750;10.570;2022-09-27T07:03:23;5.20;;;4.37;;
14778;SDS011;7481;53.750;10.570;2022-09-27T07:06:23;5.47;;;4.80;;
14778;SDS011;7481;53.750;10.570;2022-09-27T07:09:11;5.20;;;3.80;;
14778;SDS011;7481;53.750;10.570;2022-09-27T07:12:00;4.77;;;4.27;;
14778;SDS011;7481;53.750;10.570;2022-09-27T07:14:47;5.93;;;4.33;;
14778;SDS011;7481;53.750;10.570;2022-09-27T07:17:35;4.30;;;3.90;;
14778;SDS011;7481;53.750;10.570;2022-09-27T07:20:23;5.30;;;4.03;;
14778;SDS011;7481;53.750;10.570;2022-09-27T07:23:11;3.73;;;3.43;;
14778;SDS011;7481;53.750;10.570;2022-09-27T07:26:00;6.73;;;4.30;;
14778;SDS011;7481;53.750;10.570;2022-09-27T07:28:52;4.73;;;3.83;;
14778;SDS011;7481;53.750;10.570;2022-09-27T07:31:40;4.23;;;3.83;;
14778;SDS011;7481;53.750;10.570;2022-09-27T07:34:28;4.57;;;3.53;;
14778;SDS011;7481;53.750;10.570;2022-09-27T07:37:15;4.03;;;3.70;;
14778;SDS011;7481;53.750;10.570;2022-09-27T07:40:06;3.60;;;3.30;;
14778;SDS011;7481;53.750;10.570;2022-09-27T07:42:55;3.90;;;3.60;;
14778;SDS011;7481;53.750;10.570;2022-09-27T07:45:43;4.37;;;3.77;;
14778;SDS011;7481;53.750;10.570;2022-09-27T07:48:31;4.00;;;3.60;;
14778;SDS011;7481;53.750;10.570;2022-09-27T07:51:18;6.17;;;5.17;;
14778;SDS011;7481;53.750;10.570;2022-09-27T07:54:05;7.07;;;4.43;;
14778;SDS011;7481;53.750;10.570;2022-09-27T07:56:54;4.80;;;4.30;;
14778;SDS011;7481;53.750;10.570;2022-09-27T07:59:41;5.10;;;4.60;;
14778;SDS011;7481;53.750;10.570;2022-09-27T08:02:28;5.83;;;5.20;;
14778;SDS011;7481;53.750;10.570;2022-09-27T08:05:18;7.37;;;5.47;;
14778;SDS011;7481;53.750;10.570;2022-09-27T08:08:05;6.13;;;5.27;;
14778;SDS011;7481;53.750;10.570;2022-09-27T08:10:52;6.20;;;5.40;;
14778;SDS011;7481;53.750;10.570;2022-09-27T08:13:39;6.00;;;5.30;;
14778;SDS011;7481;53.750;10.570;2022-09-27T08:16:34;7.10;;;5.90;;
14778;SDS011;7481;53.750;10.570;2022-09-27T08:19:21;6.60;;;5.80;;
14778;SDS011;7481;53.750;10.570;2022-09-27T08:22:09;5.90;;;4.77;;
14778;SDS011;7481;53.750;10.570;2022-09-27T08:25:01;6.47;;;4.70;;
14778;SDS011;7481;53.750;10.570;2022-09-27T08:27:58;4.80;;;3.70;;
14778;SDS011;7481;53.750;10.570;2022-09-27T08:30:46;4.00;;;3.17;;
14778;SDS011;7481;53.750;10.570;2022-09-27T08:33:34;2.77;;;2.53;;
14778;SDS011;7481;53.750;10.570;2022-09-27T08:36:27;4.03;;;2.30;;
14778;SDS011;7481;53.750;10.570;2022-09-27T08:39:15;3.53;;;2.37;;
14778;SDS011;7481;53.750;10.570;2022-09-27T08:42:13;3.07;;;2.27;;
14778;SDS011;7481;53.750;10.570;2022-09-27T08:45:15;5.00;;;2.07;;
14778;SDS011;7481;53.750;10.570;2022-09-27T08:48:09;4.67;;;2.63;;
14778;SDS011;7481;53.750;10.570;2022-09-27T08:50:57;3.87;;;2.70;;
14778;SDS011;7481;53.750;10.570;2022-09-27T08:53:56;4.33;;;2.57;;
14778;SDS011;7481;53.750;10.570;2022-09-27T08:56:52;5.60;;;2.80;;
14778;SDS011;7481;53.750;10.570;2022-09-27T08:59:47;3.30;;;2.47;;
14778;SDS011;7481;53.750;10.570;2022-09-27T09:02:39;6.47;;;2.90;;
14778;SDS011;7481;53.750;10.570;2022-09-27T09:08:38;3.93;;;2.90;;
14778;SDS011;7481;53.750;10.570;2022-09-27T09:11:45;4.10;;;3.07;;
14778;SDS011;7481;53.750;10.570;2022-09-27T09:34:18;3.33;;;2.17;;
14778;SDS011;7481;53.750;10.570;2022-09-27T09:40:23;4.53;;;2.20;;
14778;SDS011;7481;53.750;10.570;2022-09-27T09:43:30;2.93;;;2.20;;
14778;SDS011;7481;53.750;10.570;2022-09-27T09:46:38;2.20;;;1.80;;
14778;SDS011;7481;53.750;10.570;2022-09-27T09:49:50;4.57;;;2.10;;
14778;SDS011;7481;53.750;10.570;2022-09-27T09:52:49;2.80;;;2.37;;
14778;SDS011;7481;53.750;10.570;2022-09-27T09:55:40;4.67;;;2.40;;
14778;SDS011;7481;53.750;10.570;2022-09-27T10:01:40;3.57;;;2.43;;
14778;SDS011;7481;53.750;10.570;2022-09-27T10:04:29;4.73;;;2.37;;
14778;SDS011;7481;53.750;10.570;2022-09-27T10:07:20;2.33;;;2.13;;
14778;SDS011;7481;53.750;10.570;2022-09-27T10:10:12;6.73;;;2.20;;
14778;SDS011;7481;53.750;10.570;2022-09-27T10:13:02;3.17;;;2.10;;
14778;SDS011;7481;53.750;10.570;2022-09-27T10:15:55;4.30;;;2.50;;
14778;SDS011;7481;53.750;10.570;2022-09-27T10:18:54;2.87;;;1.93;;
14778;SDS011;7481;53.750;10.570;2022-09-27T10:21:45;2.67;;;1.70;;
14778;SDS011;7481;53.750;10.570;2022-09-27T10:27:43;5.07;;;2.50;;
14778;SDS011;7481;53.750;10.570;2022-09-27T10:30:33;4.87;;;2.40;;
14778;SDS011;7481;53.750;10.570;2022-09-27T10:33:20;3.33;;;2.57;;
14778;SDS011;7481;53.750;10.570;2022-09-27T10:36:21;4.40;;;2.83;;
14778;SDS011;7481;53.750;10.570;2022-09-27T10:39:20;5.60;;;2.83;;
14778;SDS011;7481;53.750;10.570;2022-09-27T10:45:29;4.63;;;2.60;;
14778;SDS011;7481;53.750;10.570;2022-09-27T10:48:19;3.13;;;1.60;;
14778;SDS011;7481;53.750;10.570;2022-09-27T10:51:24;1.90;;;1.60;;
14778;SDS011;7481;53.750;10.570;2022-09-27T10:54:23;2.17;;;1.70;;
14778;SDS011;7481;53.750;10.570;2022-09-27T10:57:19;2.80;;;2.17;;
14778;SDS011;7481;53.750;10.570;2022-09-27T11:00:22;2.67;;;2.10;;
14778;SDS011;7481;53.750;10.570;2022-09-27T11:03:13;3.07;;;2.30;;
14778;SDS011;7481;53.750;10.570;2022-09-27T11:09:26;2.93;;;2.37;;
14778;SDS011;7481;53.750;10.570;2022-09-27T11:12:13;1.70;;;1.60;;
14778;SDS011;7481;53.750;10.570;2022-09-27T11:15:03;3.70;;;1.43;;
14778;SDS011;7481;53.750;10.570;2022-09-27T11:18:15;1.53;;;1.40;;
14778;SDS011;7481;53.750;10.570;2022-09-27T11:21:26;1.87;;;1.63;;
14778;SDS011;7481;53.750;10.570;2022-09-27T11:24:42;2.13;;;1.53;;
14778;SDS011;7481;53.750;10.570;2022-09-27T11:27:57;1.53;;;1.40;;
14778;SDS011;7481;53.750;10.570;2022-09-27T11:34:17;1.97;;;1.30;;
14778;SDS011;7481;53.750;10.570;2022-09-27T11:37:21;1.70;;;1.30;;
14778;SDS011;7481;53.750;10.570;2022-09-27T11:40:45;1.67;;;1.50;;
14778;SDS011;7481;53.750;10.570;2022-09-27T11:50:40;2.57;;;1.57;;
14778;SDS011;7481;53.750;10.570;2022-09-27T11:53:58;1.80;;;1.50;;
14778;SDS011;7481;53.750;10.570;2022-09-27T12:00:19;3.73;;;1.30;;
14778;SDS011;7481;53.750;10.570;2022-09-27T12:06:40;1.33;;;1.20;;
14778;SDS011;7481;53.750;10.570;2022-09-27T12:09:50;1.50;;;1.40;;
14778;SDS011;7481;53.750;10.570;2022-09-27T12:12:43;1.70;;;1.60;;
14778;SDS011;7481;53.750;10.570;2022-09-27T12:15:35;1.97;;;1.33;;
14778;SDS011;7481;53.750;10.570;2022-09-27T12:18:29;1.40;;;1.30;;
14778;SDS011;7481;53.750;10.570;2022-09-27T12:21:18;1.40;;;1.30;;
14778;SDS011;7481;53.750;10.570;2022-09-27T12:24:08;1.50;;;1.40;;
14778;SDS011;7481;53.750;10.570;2022-09-27T12:27:09;1.47;;;1.37;;
14778;SDS011;7481;53.750;10.570;2022-09-27T12:30:02;1.60;;;1.50;;
14778;SDS011;7481;53.750;10.570;2022-09-27T12:36:05;1.40;;;1.30;;
14778;SDS011;7481;53.750;10.570;2022-09-27T12:39:40;1.43;;;1.17;;
14778;SDS011;7481;53.750;10.570;2022-09-27T12:42:11;1.50;;;1.40;;
14778;SDS011;7481;53.750;10.570;2022-09-27T12:45:04;2.30;;;1.50;;
14778;SDS011;7481;53.750;10.570;2022-09-27T12:48:05;1.50;;;1.40;;
14778;SDS011;7481;53.750;10.570;2022-09-27T12:51:05;1.30;;;1.20;;
14778;SDS011;7481;53.750;10.570;2022-09-27T13:13:36;1.57;;;1.30;;
14778;SDS011;7481;53.750;10.570;2022-09-27T13:16:25;2.47;;;1.30;;
14778;SDS011;7481;53.750;10.570;2022-09-27T13:34:40;2.73;;;1.60;;
14778;SDS011;7481;53.750;10.570;2022-09-27T13:37:41;3.97;;;1.97;;
14778;SDS011;7481;53.750;10.570;2022-09-27T13:40:40;1.60;;;1.50;;
14778;SDS011;7481;53.750;10.570;2022-09-27T13:46:30;1.70;;;1.47;;
14778;SDS011;7481;53.750;10.570;2022-09-27T13:49:22;1.90;;;1.50;;
14778;SDS011;7481;53.750;10.570;2022-09-27T14:01:42;2.30;;;1.73;;
14778;SDS011;7481;53.750;10.570;2022-09-27T14:04:40;1.40;;;1.30;;
14778;SDS011;7481;53.750;10.570;2022-09-27T14:07:46;1.70;;;1.50;;
14778;SDS011;7481;53.750;10.570;2022-09-27T14:10:35;1.63;;;1.50;;
14778;SDS011;7481;53.750;10.570;2022-09-27T14:13:23;4.40;;;1.40;;
14778;SDS011;7481;53.750;10.570;2022-09-27T14:16:15;2.67;;;1.40;;
14778;SDS011;7481;53.750;10.570;2022-09-27T14:19:03;3.03;;;1.40;;
14778;SDS011;7481;53.750;10.570;2022-09-27T14:25:16;1.37;;;1.13;;
14778;SDS011;7481;53.750;10.570;2022-09-27T14:28:15;1.40;;;1.30;;
14778;SDS011;7481;53.750;10.570;2022-09-27T14:31:12;1.50;;;1.20;;
14778;SDS011;7481;53.750;10.570;2022-09-27T14:34:06;1.10;;;1.00;;
14778;SDS011;7481;53.750;10.570;2022-09-27T14:36:54;1.47;;;1.17;;
14778;SDS011;7481;53.750;10.570;2022-09-27T14:40:01;1.17;;;1.03;;
14778;SDS011;7481;53.750;10.570;2022-09-27T14:42:54;2.23;;;1.20;;
14778;SDS011;7481;53.750;10.570;2022-09-27T14:45:43;2.43;;;1.30;;
14778;SDS011;7481;53.750;10.570;2022-09-27T14:48:34;1.13;;;1.03;;
14778;SDS011;7481;53.750;10.570;2022-09-27T14:51:27;2.13;;;1.20;;
14778;SDS011;7481;53.750;10.570;2022-09-27T14:54:22;1.70;;;1.20;;
14778;SDS011;7481;53.750;10.570;2022-09-27T14:57:12;2.23;;;1.50;;
14778;SDS011;7481;53.750;10.570;2022-09-27T15:03:07;1.67;;;1.20;;
14778;SDS011;7481;53.750;10.570;2022-09-27T15:06:00;2.40;;;1.00;;
14778;SDS011;7481;53.750;10.570;2022-09-27T15:08:47;1.27;;;1.00;;
14778;SDS011;7481;53.750;10.570;2022-09-27T15:11:35;3.23;;;1.20;;
14778;SDS011;7481;53.750;10.570;2022-09-27T15:14:24;3.20;;;1.20;;
14778;SDS011;7481;53.750;10.570;2022-09-27T15:17:15;3.53;;;1.20;;
14778;SDS011;7481;53.750;10.570;2022-09-27T15:23:24;1.47;;;1.23;;
14778;SDS011;7481;53.750;10.570;2022-09-27T15:29:04;1.53;;;1.07;;
14778;SDS011;7481;53.750;10.570;2022-09-27T15:31:58;1.20;;;1.10;;
14778;SDS011;7481;53.750;10.570;2022-09-27T15:34:48;1.97;;;1.10;;
14778;SDS011;7481;53.750;10.570;2022-09-27T15:37:36;2.63;;;1.40;;
14778;SDS011;7481;53.750;10.570;2022-09-27T15:46:35;2.60;;;1.53;;
14778;SDS011;7481;53.750;10.570;2022-09-27T15:49:31;2.60;;;1.40;;
14778;SDS011;7481;53.750;10.570;2022-09-27T15:55:38;1.53;;;1.30;;
14778;SDS011;7481;53.750;10.570;2022-09-27T15:58:27;1.60;;;1.33;;
14778;SDS011;7481;53.750;10.570;2022-09-27T16:01:16;1.23;;;1.13;;
14778;SDS011;7481;53.750;10.570;2022-09-27T16:04:07;1.20;;;1.10;;
14778;SDS011;7481;53.750;10.570;2022-09-27T16:06:54;1.37;;;1.20;;
14778;SDS011;7481;53.750;10.570;2022-09-27T16:09:42;3.73;;;1.30;;
14778;SDS011;7481;53.750;10.570;2022-09-27T16:12:30;1.87;;;1.27;;
14778;SDS011;7481;53.750;10.570;2022-09-27T16:15:17;3.10;;;1.20;;
14778;SDS011;7481;53.750;10.570;2022-09-27T16:18:04;1.57;;;1.20;;
14778;SDS011;7481;53.750;10.570;2022-09-27T16:20:51;2.80;;;1.20;;
14778;SDS011;7481;53.750;10.570;2022-09-27T16:23:38;1.50;;;1.20;;
14778;SDS011;7481;53.750;10.570;2022-09-27T16:26:25;3.23;;;1.30;;
14778;SDS011;7481;53.750;10.570;2022-09-27T16:29:13;1.53;;;1.20;;
14778;SDS011;7481;53.750;10.570;2022-09-27T16:32:00;1.10;;;1.07;;
14778;SDS011;7481;53.750;10.570;2022-09-27T16:34:47;2.77;;;1.40;;
14778;SDS011;7481;53.750;10.570;2022-09-27T16:37:35;2.33;;;1.23;;
14778;SDS011;7481;53.750;10.570;2022-09-27T16:40:22;2.40;;;1.37;;
14778;SDS011;7481;53.750;10.570;2022-09-27T16:43:12;2.20;;;1.30;;
14778;SDS011;7481;53.750;10.570;2022-09-27T16:46:02;3.83;;;1.73;;
14778;SDS011;7481;53.750;10.570;2022-09-27T16:49:19;3.70;;;1.80;;
14778;SDS011;7481;53.750;10.570;2022-09-27T16:52:25;3.17;;;2.10;;
14778;SDS011;7481;53.750;10.570;2022-09-27T16:55:12;4.93;;;2.60;;
14778;SDS011;7481;53.750;10.570;2022-09-27T16:58:01;1.90;;;1.70;;
14778;SDS011;7481;53.750;10.570;2022-09-27T17:00:50;2.87;;;2.20;;
14778;SDS011;7481;53.750;10.570;2022-09-27T17:03:37;2.63;;;1.80;;
14778;SDS011;7481;53.750;10.570;2022-09-27T17:06:25;3.60;;;2.10;;
14778;SDS011;7481;53.750;10.570;2022-09-27T17:09:13;3.30;;;2.10;;
14778;SDS011;7481;53.750;10.570;2022-09-27T17:12:00;2.33;;;1.80;;
14778;SDS011;7481;53.750;10.570;2022-09-27T17:14:47;4.83;;;2.50;;
14778;SDS011;7481;53.750;10.570;2022-09-27T17:17:34;3.77;;;2.53;;
14778;SDS011;7481;53.750;10.570;2022-09-27T17:20:21;2.50;;;1.73;;
14778;SDS011;7481;53.750;10.570;2022-09-27T17:23:08;3.20;;;2.03;;
14778;SDS011;7481;53.750;10.570;2022-09-27T17:26:06;2.30;;;1.60;;
14778;SDS011;7481;53.750;10.570;2022-09-27T17:28:54;2.97;;;1.93;;
14778;SDS011;7481;53.750;10.570;2022-09-27T17:31:43;2.50;;;2.10;;
14778;SDS011;7481;53.750;10.570;2022-09-27T17:34:30;2.77;;;1.80;;
14778;SDS011;7481;53.750;10.570;2022-09-27T17:37:17;3.23;;;1.90;;
14778;SDS011;7481;53.750;10.570;2022-09-27T17:40:05;3.10;;;2.23;;
14778;SDS011;7481;53.750;10.570;2022-09-27T17:42:52;3.57;;;2.10;;
14778;SDS011;7481;53.750;10.570;2022-09-27T17:45:39;5.70;;;1.80;;
14778;SDS011;7481;53.750;10.570;2022-09-27T17:48:25;1.83;;;1.30;;
14778;SDS011;7481;53.750;10.570;2022-09-27T17:51:32;3.83;;;1.50;;
14778;SDS011;7481;53.750;10.570;2022-09-27T17:54:22;2.33;;;1.40;;
14778;SDS011;7481;53.750;10.570;2022-09-27T17:57:11;3.60;;;1.73;;
14778;SDS011;7481;53.750;10.570;2022-09-27T17:59:59;2.57;;;1.20;;
14778;SDS011;7481;53.750;10.570;2022-09-27T18:02:46;3.27;;;1.37;;
14778;SDS011;7481;53.750;10.570;2022-09-27T18:05:34;4.90;;;1.40;;
14778;SDS011;7481;53.750;10.570;2022-09-27T18:08:23;3.07;;;1.73;;
14778;SDS011;7481;53.750;10.570;2022-09-27T18:11:15;3.53;;;1.80;;
14778;SDS011;7481;53.750;10.570;2022-09-27T18:14:04;3.50;;;1.70;;
14778;SDS011;7481;53.750;10.570;2022-09-27T18:16:52;1.57;;;1.37;;
14778;SDS011;7481;53.750;10.570;2022-09-27T18:19:43;3.07;;;1.43;;
14778;SDS011;7481;53.750;10.570;2022-09-27T18:22:30;2.03;;;1.67;;
14778;SDS011;7481;53.750;10.570;2022-09-27T18:25:17;1.73;;;1.43;;
14778;SDS011;7481;53.750;10.570;2022-09-27T18:28:03;3.03;;;1.67;;
14778;SDS011;7481;53.750;10.570;2022-09-27T18:30:51;3.70;;;1.30;;
14778;SDS011;7481;53.750;10.570;2022-09-27T18:33:55;1.73;;;1.33;;
14778;SDS011;7481;53.750;10.570;2022-09-27T18:36:43;3.20;;;1.43;;
14778;SDS011;7481;53.750;10.570;2022-09-27T18:39:30;1.60;;;1.13;;
14778;SDS011;7481;53.750;10.570;2022-09-27T18:42:17;1.93;;;1.20;;
14778;SDS011;7481;53.750;10.570;2022-09-27T18:45:03;2.93;;;1.93;;
14778;SDS011;7481;53.750;10.570;2022-09-27T18:47:51;2.60;;;1.40;;
14778;SDS011;7481;53.750;10.570;2022-09-27T18:50:38;1.77;;;1.50;;
14778;SDS011;7481;53.750;10.570;2022-09-27T18:53:25;2.53;;;1.57;;
14778;SDS011;7481;53.750;10.570;2022-09-27T18:56:13;3.80;;;1.50;;
14778;SDS011;7481;53.750;10.570;2022-09-27T18:59:02;3.30;;;1.57;;
14778;SDS011;7481;53.750;10.570;2022-09-27T19:01:48;4.47;;;1.80;;
14778;SDS011;7481;53.750;10.570;2022-09-27T19:04:36;2.97;;;1.63;;
14778;SDS011;7481;53.750;10.570;2022-09-27T19:07:23;2.33;;;1.40;;
14778;SDS011;7481;53.750;10.570;2022-09-27T19:10:10;2.43;;;1.50;;
14778;SDS011;7481;53.750;10.570;2022-09-27T19:12:57;4.10;;;1.70;;
14778;SDS011;7481;53.750;10.570;2022-09-27T19:15:52;2.53;;;1.73;;
14778;SDS011;7481;53.750;10.570;2022-09-27T19:18:41;2.07;;;1.60;;
14778;SDS011;7481;53.750;10.570;2022-09-27T19:21:28;2.33;;;1.60;;
14778;SDS011;7481;53.750;10.570;2022-09-27T19:24:15;2.07;;;1.67;;
14778;SDS011;7481;53.750;10.570;2022-09-27T19:27:03;4.23;;;1.60;;
14778;SDS011;7481;53.750;10.570;2022-09-27T19:29:50;2.57;;;1.80;;
14778;SDS011;7481;53.750;10.570;2022-09-27T19:32:37;2.33;;;1.60;;
14778;SDS011;7481;53.750;10.570;2022-09-27T19:35:24;3.30;;;1.70;;
14778;SDS011;7481;53.750;10.570;2022-09-27T19:38:11;3.73;;;1.80;;
14778;SDS011;7481;53.750;10.570;2022-09-27T19:40:58;2.43;;;2.00;;
14778;SDS011;7481;53.750;10.570;2022-09-27T19:43:49;5.33;;;1.80;;
14778;SDS011;7481;53.750;10.570;2022-09-27T19:46:37;3.17;;;2.00;;
14778;SDS011;7481;53.750;10.570;2022-09-27T19:49:25;4.87;;;2.10;;
14778;SDS011;7481;53.750;10.570;2022-09-27T19:52:12;2.73;;;2.17;;
14778;SDS011;7481;53.750;10.570;2022-09-27T19:54:59;5.13;;;2.30;;
14778;SDS011;7481;53.750;10.570;2022-09-27T19:57:45;2.40;;;2.17;;
14778;SDS011;7481;53.750;10.570;2022-09-27T20:00:32;4.80;;;2.17;;
14778;SDS011;7481;53.750;10.570;2022-09-27T20:03:19;4.33;;;2.20;;